Time;durP1;ratioP1;P1;durP2;ratioP2;P2;SDS_P1;SDS_P2;PMS_P1;PMS_P2;Temp;Humidity;BMP_temperature;BMP_pressure;BME280_temperature;BME280_humidity;BME280_pressure;Samples;Min_cycle;Max_cycle;Signal;HPM_P1;HPM_P2
2021/10/15 00:03:24;;;;;;;7.30;6.60;;;;;;;8.43;87.79;100598.93;230296;1196;138307;-74
2021/10/15 00:08:26;;;;;;;7.10;6.40;;;;;;;8.41;88.06;100592.80;230295;1196;137928;-74
2021/10/15 00:13:28;;;;;;;7.20;6.50;;;;;;;8.40;88.55;100593.38;229244;1196;138187;-74
2021/10/15 00:18:30;;;;;;;6.70;6.00;;;;;;;8.39;88.77;100591.19;230304;1195;139404;-74
2021/10/15 00:23:31;;;;;;;6.20;5.60;;;;;;;8.37;89.10;100586.10;229351;1196;139070;-74
2021/10/15 00:28:33;;;;;;;6.90;5.70;;;;;;;8.37;89.88;100582.80;230306;1195;139043;-74
2021/10/15 00:33:35;;;;;;;5.80;5.30;;;;;;;8.35;90.12;100576.63;229803;1196;139200;-73
2021/10/15 00:38:36;;;;;;;5.60;5.00;;;;;;;8.33;90.60;100572.97;229460;1197;139060;-73
2021/10/15 00:44:02;;;;;;;5.90;4.90;;;;;;;8.35;90.94;100572.39;229391;1196;138926;-74
2021/10/15 00:49:06;;;;;;;6.10;5.60;;;;;;;8.41;90.96;100567.30;229446;1197;138659;-73
2021/10/15 00:54:10;;;;;;;6.50;5.90;;;;;;;8.47;90.46;100563.84;229510;1196;138649;-73
2021/10/15 00:59:12;;;;;;;6.50;5.90;;;;;;;8.47;90.46;100556.98;229316;1197;138144;-74
2021/10/15 01:04:14;;;;;;;6.60;6.00;;;;;;;8.49;90.59;100550.65;229431;1196;138431;-73
2021/10/15 01:09:16;;;;;;;8.40;7.60;;;;;;;8.49;90.24;100547.00;229470;1196;138603;-74
2021/10/15 01:14:18;;;;;;;6.60;6.10;;;;;;;8.43;90.85;100540.46;229466;1196;139251;-73
2021/10/15 01:19:21;;;;;;;7.60;6.90;;;;;;;8.46;90.85;100537.25;229583;1197;138532;-73
2021/10/15 01:24:22;;;;;;;9.90;8.90;;;;;;;8.48;90.96;100541.08;229490;1195;138241;-73
2021/10/15 01:29:26;;;;;;;8.60;7.70;;;;;;;8.48;90.78;100539.89;229813;1196;138924;-74
2021/10/15 01:34:27;;;;;;;9.70;8.70;;;;;;;8.46;91.12;100534.56;230219;1195;138797;-75
2021/10/15 01:39:30;;;;;;;9.70;8.70;;;;;;;8.50;90.86;100526.52;229586;1196;138816;-74
2021/10/15 01:44:31;;;;;;;9.60;8.50;;;;;;;8.49;91.03;100516.19;229367;1197;139731;-73
2021/10/15 01:49:33;;;;;;;10.60;9.60;;;;;;;8.53;90.93;100520.44;229787;1195;139143;-72
2021/10/15 01:54:35;;;;;;;10.90;9.80;;;;;;;8.55;91.06;100519.58;229386;1195;139349;-73
2021/10/15 01:59:36;;;;;;;12.20;10.90;;;;;;;8.58;90.77;100522.09;229495;1197;138728;-74
2021/10/15 02:04:38;;;;;;;12.10;10.40;;;;;;;8.55;90.86;100519.38;230562;1197;138436;-73
2021/10/15 02:09:40;;;;;;;14.10;12.00;;;;;;;8.55;91.43;100520.60;229746;1195;139419;-73
2021/10/15 02:14:41;;;;;;;14.00;11.60;;;;;;;8.60;91.17;100518.75;229337;1197;139041;-74
2021/10/15 02:19:43;;;;;;;15.10;12.20;;;;;;;8.67;90.69;100510.09;230307;1195;139143;-74
2021/10/15 02:24:45;;;;;;;17.10;13.70;;;;;;;8.67;90.98;100510.27;229674;1197;139083;-73
2021/10/15 02:29:47;;;;;;;18.10;14.80;;;;;;;8.68;91.27;100503.32;229525;1195;139295;-75
2021/10/15 02:34:48;;;;;;;21.40;17.80;;;;;;;8.73;91.16;100503.56;229739;1194;138477;-75
2021/10/15 02:39:50;;;;;;;17.30;14.80;;;;;;;8.70;91.45;100502.76;230023;1196;138876;-72
2021/10/15 02:44:52;;;;;;;18.50;15.10;;;;;;;8.72;91.62;100498.41;229758;1195;138921;-74
2021/10/15 02:49:54;;;;;;;18.10;14.90;;;;;;;8.78;91.14;100503.69;230261;1196;139548;-73
2021/10/15 02:54:55;;;;;;;18.20;14.30;;;;;;;8.81;91.14;100503.04;229546;1197;139445;-74
2021/10/15 02:59:57;;;;;;;20.40;17.20;;;;;;;8.84;91.17;100494.80;229522;1196;139843;-73
2021/10/15 03:04:58;;;;;;;20.50;16.70;;;;;;;8.89;91.15;100498.06;229599;1197;141323;-76
2021/10/15 03:10:01;;;;;;;20.80;17.10;;;;;;;8.95;90.92;100495.94;229717;1197;139418;-74
2021/10/15 03:15:03;;;;;;;21.30;18.80;;;;;;;8.94;90.73;100497.21;230377;1197;138181;-74
2021/10/15 03:20:05;;;;;;;21.30;17.70;;;;;;;8.93;90.97;100493.80;229732;1197;138944;-74
2021/10/15 03:25:07;;;;;;;16.40;14.60;;;;;;;8.93;91.26;100486.78;229638;1195;139002;-73
2021/10/15 03:30:10;;;;;;;18.10;16.20;;;;;;;9.00;90.86;100489.48;229476;1193;139066;-74
2021/10/15 03:35:12;;;;;;;18.50;15.50;;;;;;;9.05;90.48;100483.43;229540;1196;139189;-73
2021/10/15 03:40:14;;;;;;;19.70;17.60;;;;;;;9.02;90.66;100487.84;229026;1200;140198;-75
2021/10/15 03:45:16;;;;;;;17.30;15.50;;;;;;;8.99;91.35;100484.80;229203;1200;138660;-75
2021/10/15 03:50:18;;;;;;;16.90;14.90;;;;;;;8.96;91.64;100485.11;229519;1196;138389;-73
2021/10/15 03:55:20;;;;;;;16.40;14.70;;;;;;;9.01;91.43;100486.44;229347;1195;138822;-69
2021/10/15 04:00:21;;;;;;;15.70;13.70;;;;;;;9.04;91.32;100484.19;229523;1200;138851;-73
2021/10/15 04:05:23;;;;;;;15.00;13.30;;;;;;;9.07;91.02;100481.30;229590;1197;139201;-73
2021/10/15 04:10:25;;;;;;;18.10;15.00;;;;;;;9.06;90.84;100474.13;229482;1196;139287;-72
2021/10/15 04:15:26;;;;;;;13.40;12.00;;;;;;;9.07;90.90;100473.73;228950;1196;139491;-73
2021/10/15 04:20:28;;;;;;;15.20;13.60;;;;;;;9.06;90.70;100475.03;229309;1196;139665;-72
2021/10/15 04:25:30;;;;;;;13.80;12.40;;;;;;;9.07;90.59;100475.33;229135;1200;138619;-75
2021/10/15 04:30:31;;;;;;;15.20;13.60;;;;;;;9.10;90.70;100474.31;229692;1196;139643;-74
2021/10/15 04:35:33;;;;;;;13.30;12.00;;;;;;;9.19;90.15;100474.28;229332;1200;139251;-74
2021/10/15 04:40:35;;;;;;;16.60;13.10;;;;;;;9.25;89.64;100470.19;229722;1196;138954;-74
2021/10/15 04:45:37;;;;;;;15.40;13.70;;;;;;;9.25;89.65;100472.04;229966;1197;139049;-74
2021/10/15 04:50:38;;;;;;;14.50;13.10;;;;;;;9.21;89.81;100457.64;229737;1197;139043;-75
2021/10/15 04:55:40;;;;;;;12.20;11.00;;;;;;;9.21;89.90;100460.70;229926;1196;138875;-73
2021/10/15 05:00:42;;;;;;;12.80;11.50;;;;;;;9.26;89.43;100463.16;229639;1187;139633;-74
2021/10/15 05:05:44;;;;;;;14.80;13.30;;;;;;;9.26;89.60;100465.16;229613;1197;139409;-74
2021/10/15 05:10:45;;;;;;;18.50;13.10;;;;;;;9.24;89.88;100461.41;230454;1195;139040;-75
2021/10/15 05:15:47;;;;;;;14.10;12.60;;;;;;;9.30;89.40;100462.98;229795;1196;139015;-74
2021/10/15 05:20:49;;;;;;;13.40;12.10;;;;;;;9.27;89.61;100462.08;229827;1197;138517;-75
2021/10/15 05:25:51;;;;;;;17.40;15.00;;;;;;;9.28;89.75;100457.54;230138;1196;139787;-73
2021/10/15 05:30:54;;;;;;;14.80;13.20;;;;;;;9.35;89.32;100450.89;229591;1195;139009;-74
2021/10/15 05:35:56;;;;;;;17.70;15.30;;;;;;;9.39;89.13;100452.00;229941;1195;139160;-75
2021/10/15 05:40:58;;;;;;;15.90;14.20;;;;;;;9.41;88.91;100447.32;230069;1187;138885;-73
2021/10/15 05:46:02;;;;;;;16.40;14.50;;;;;;;9.42;88.93;100445.15;229731;1196;138338;-74
2021/10/15 05:51:04;;;;;;;17.20;14.50;;;;;;;9.42;88.82;100446.37;232428;1196;140554;-76
2021/10/15 06:01:07;;;;;;;16.70;14.40;;;;;;;9.51;88.68;100441.34;229772;1196;139324;-75
2021/10/15 06:17:06;;;;;;;16.60;14.80;;;;;;;9.60;88.01;100449.80;229085;1199;138617;-75
2021/10/15 06:22:09;;;;;;;15.10;13.60;;;;;;;9.67;87.61;100451.11;230155;1196;138926;-75
2021/10/15 06:27:11;;;;;;;15.90;14.30;;;;;;;9.70;87.37;100453.98;229876;1197;139095;-74
2021/10/15 06:32:12;;;;;;;15.80;14.10;;;;;;;9.72;87.55;100458.87;229807;1187;138527;-74
2021/10/15 06:37:16;;;;;;;16.30;14.60;;;;;;;9.75;87.14;100459.45;230521;1196;138461;-74
2021/10/15 06:42:19;;;;;;;18.20;14.90;;;;;;;9.76;86.88;100457.64;230512;1196;139518;-74
2021/10/15 06:47:21;;;;;;;14.30;12.80;;;;;;;9.81;86.88;100455.52;230530;1196;142290;-74
2021/10/15 06:52:23;;;;;;;15.20;13.70;;;;;;;9.87;86.35;100451.59;230199;1196;138800;-73
2021/10/15 06:57:25;;;;;;;16.50;14.90;;;;;;;9.91;86.44;100448.95;230585;1195;139374;-74
2021/10/15 07:02:27;;;;;;;18.00;16.10;;;;;;;10.00;85.73;100449.85;230458;1196;139246;-74
2021/10/15 07:07:28;;;;;;;16.00;14.30;;;;;;;10.12;85.16;100443.81;229952;1197;139171;-76
2021/10/15 07:12:44;;;;;;;14.90;13.40;;;;;;;10.11;85.36;100444.45;229913;1196;139134;-74
2021/10/15 07:17:46;;;;;;;14.80;13.20;;;;;;;10.14;85.01;100454.34;229663;1200;139204;-73
2021/10/15 07:22:48;;;;;;;15.00;12.60;;;;;;;10.20;84.86;100455.49;230086;1196;139010;-76
2021/10/15 07:27:50;;;;;;;13.70;12.30;;;;;;;10.29;84.41;100459.06;230503;1196;139184;-74
2021/10/15 07:32:52;;;;;;;17.10;13.80;;;;;;;10.32;83.95;100463.70;230332;1196;139600;-75
2021/10/15 07:37:54;;;;;;;13.80;12.00;;;;;;;10.30;83.93;100471.95;230546;1196;138528;-76
2021/10/15 07:42:56;;;;;;;13.50;12.20;;;;;;;10.43;83.27;100474.52;230213;1196;139237;-75
2021/10/15 07:47:58;;;;;;;13.20;11.80;;;;;;;10.49;82.92;100474.31;230252;1196;139155;-75
2021/10/15 07:53:00;;;;;;;13.20;11.80;;;;;;;10.45;82.77;100467.64;231234;1196;139118;-76
2021/10/15 07:58:02;;;;;;;14.40;12.80;;;;;;;10.53;82.62;100464.24;231079;1196;138818;-76
2021/10/15 08:03:09;;;;;;;13.90;12.50;;;;;;;10.60;82.12;100454.23;230565;1196;139108;-75
2021/10/15 08:08:10;;;;;;;13.50;12.20;;;;;;;10.61;82.26;100462.23;230813;1195;139800;-75
2021/10/15 08:13:13;;;;;;;11.90;10.80;;;;;;;10.58;82.32;100459.73;230497;1196;139016;-75
2021/10/15 08:18:15;;;;;;;11.50;10.30;;;;;;;10.69;81.63;100455.23;230063;1195;141061;-75
2021/10/15 08:23:16;;;;;;;12.70;11.40;;;;;;;10.81;81.39;100454.57;230328;1196;142071;-75
2021/10/15 08:28:18;;;;;;;10.90;9.80;;;;;;;10.85;80.94;100447.52;230034;1197;138820;-77
2021/10/15 08:33:20;;;;;;;12.30;11.00;;;;;;;10.87;80.68;100449.07;230555;1195;138970;-75
2021/10/15 08:38:22;;;;;;;11.90;10.40;;;;;;;11.00;80.15;100446.88;230566;1196;139458;-76
2021/10/15 08:43:35;;;;;;;11.00;9.90;;;;;;;11.13;79.43;100442.54;230433;1196;138850;-76
2021/10/15 08:48:39;;;;;;;11.90;9.90;;;;;;;11.23;79.34;100440.11;230207;1196;138559;-75
2021/10/15 08:53:44;;;;;;;10.90;9.40;;;;;;;11.32;78.75;100434.82;229737;1196;138753;-73
2021/10/15 08:58:47;;;;;;;;;;;;;;;11.60;77.53;100433.52;229746;1196;138870;-75
2021/10/15 09:03:49;;;;;;;9.70;8.70;;;;;;;11.68;76.84;100427.36;230306;1197;124517;-75
2021/10/15 09:08:54;;;;;;;9.80;8.70;;;;;;;11.66;76.77;100420.59;230636;1196;138281;-76
2021/10/15 09:14:25;;;;;;;10.80;9.60;;;;;;;11.69;77.00;100419.33;230893;1196;139227;-76
2021/10/15 09:19:28;;;;;;;12.00;10.50;;;;;;;11.73;76.93;100425.00;230608;1196;139051;-74
2021/10/15 09:24:36;;;;;;;11.80;10.40;;;;;;;11.76;76.29;100419.71;230075;1196;139139;-76
2021/10/15 09:29:48;;;;;;;11.30;9.40;;;;;;;11.81;76.34;100417.63;229928;1202;139350;-74
2021/10/15 09:34:50;;;;;;;11.30;10.20;;;;;;;11.75;77.09;100408.09;230541;1196;138716;-75
2021/10/15 09:40:02;;;;;;;9.80;8.70;;;;;;;11.83;76.60;100407.45;229983;1196;139205;-74
2021/10/15 09:45:12;;;;;;;12.90;11.60;;;;;;;12.01;75.93;100405.59;230132;1195;139622;-76
2021/10/15 09:50:17;;;;;;;11.40;10.20;;;;;;;12.08;74.97;100401.48;229826;1197;139282;-74
2021/10/15 09:55:33;;;;;;;10.80;9.70;;;;;;;12.18;74.63;100397.84;230282;1196;138707;-75
2021/10/15 10:00:35;;;;;;;12.20;11.10;;;;;;;12.26;73.91;100400.44;229924;1195;139355;-75
2021/10/15 10:05:38;;;;;;;11.30;10.10;;;;;;;12.45;73.16;100394.58;230415;1195;139181;-78
2021/10/15 10:10:40;;;;;;;13.40;10.60;;;;;;;12.88;72.78;100389.13;230687;1195;138967;-79
2021/10/15 10:15:45;;;;;;;11.70;9.70;;;;;;;12.76;70.98;100384.80;232298;1195;138844;-74
2021/10/15 10:20:53;;;;;;;11.50;10.30;;;;;;;12.66;71.25;100377.95;232382;1196;139097;-75
2021/10/15 10:26:01;;;;;;;11.20;10.20;;;;;;;12.73;71.63;100370.67;230647;1196;138778;-75
2021/10/15 10:31:06;;;;;;;9.90;9.00;;;;;;;12.85;71.23;100370.89;230936;1196;138977;-75
2021/10/15 10:36:12;;;;;;;10.50;9.50;;;;;;;12.96;70.85;100374.15;230892;1195;139387;-75
2021/10/15 10:41:19;;;;;;;10.30;9.40;;;;;;;13.26;70.34;100370.35;230301;1196;142009;-76
2021/10/15 10:46:26;;;;;;;10.00;8.70;;;;;;;13.37;69.83;100364.79;229893;1196;138551;-75
2021/10/15 10:51:30;;;;;;;10.20;9.00;;;;;;;13.32;69.39;100360.42;230560;1197;138566;-73
2021/10/15 10:56:38;;;;;;;11.00;9.90;;;;;;;13.19;69.41;100368.60;230760;1196;138891;-75
2021/10/15 11:01:54;;;;;;;11.60;10.40;;;;;;;13.15;69.20;100367.41;230505;1196;138683;-75
2021/10/15 11:07:00;;;;;;;12.50;10.80;;;;;;;13.17;69.09;100362.14;230217;1196;138309;-75
2021/10/15 11:12:02;;;;;;;11.30;10.10;;;;;;;13.10;68.63;100353.54;230791;1196;138326;-75
2021/10/15 11:17:09;;;;;;;10.40;9.40;;;;;;;13.15;69.11;100337.35;231078;1196;139448;-74
2021/10/15 11:22:12;;;;;;;9.30;8.40;;;;;;;13.33;68.52;100321.92;231326;1195;138147;-75
2021/10/15 11:27:16;;;;;;;11.30;10.20;;;;;;;13.90;66.02;100313.48;230410;1196;137974;-75
2021/10/15 11:32:38;;;;;;;10.10;9.10;;;;;;;13.92;65.31;100314.99;230050;1195;138526;-74
2021/10/15 11:37:41;;;;;;;9.30;8.00;;;;;;;14.11;64.26;100312.67;230491;1196;138345;-75
2021/10/15 11:42:43;;;;;;;12.20;9.80;;;;;;;14.42;62.17;100305.34;230332;1196;138514;-74
2021/10/15 11:47:58;;;;;;;9.70;8.80;;;;;;;14.24;62.57;100300.20;229998;1196;140189;-75
2021/10/15 11:53:00;;;;;;;11.40;10.30;;;;;;;14.43;61.71;100302.41;231282;1195;138499;-74
2021/10/15 11:58:18;;;;;;;10.40;9.40;;;;;;;14.22;61.85;100295.43;230831;1196;138420;-78
2021/10/15 12:03:43;;;;;;;8.90;8.10;;;;;;;13.85;63.38;100288.95;230968;1196;138168;-75
2021/10/15 12:08:47;;;;;;;10.60;9.50;;;;;;;13.71;62.62;100282.04;230891;1195;138236;-79
2021/10/15 12:13:50;;;;;;;8.70;7.80;;;;;;;13.82;63.10;100274.05;230861;1196;139042;-74
2021/10/15 12:19:11;;;;;;;9.80;8.90;;;;;;;14.19;62.11;100267.45;230456;1181;138471;-76
2021/10/15 12:24:30;;;;;;;11.10;9.20;;;;;;;14.69;59.92;100263.63;230555;1195;137996;-75
2021/10/15 12:29:35;;;;;;;11.10;8.80;;;;;;;15.09;58.52;100257.86;230581;1196;138359;-75
2021/10/15 12:34:55;;;;;;;8.10;7.30;;;;;;;15.22;57.33;100264.58;230574;1196;139347;-74
2021/10/15 12:40:07;;;;;;;8.40;7.70;;;;;;;14.58;59.58;100263.95;230973;1196;137927;-74
2021/10/15 12:45:15;;;;;;;11.80;9.30;;;;;;;14.10;60.64;100267.73;230866;1196;138677;-74
2021/10/15 12:50:17;;;;;;;9.40;8.50;;;;;;;13.78;61.74;100257.65;229914;1196;139260;-74
2021/10/15 12:55:26;;;;;;;10.20;9.20;;;;;;;13.70;62.66;100253.45;234400;1196;138675;-73
2021/10/15 13:00:29;;;;;;;8.70;8.00;;;;;;;13.59;63.72;100249.08;235545;1195;137797;-75
2021/10/15 13:05:33;;;;;;;8.50;7.70;;;;;;;13.48;64.20;100240.02;235845;1194;137986;-73
2021/10/15 13:10:35;;;;;;;8.60;7.80;;;;;;;13.45;64.41;100237.23;231509;1195;138468;-75
2021/10/15 13:15:38;;;;;;;9.70;8.90;;;;;;;13.45;63.95;100238.41;230468;1196;138160;-75
2021/10/15 13:20:40;;;;;;;10.20;8.80;;;;;;;13.41;64.11;100233.23;230669;1196;138311;-77
2021/10/15 13:25:42;;;;;;;8.30;7.50;;;;;;;13.31;64.80;100233.31;230758;1196;138979;-75
2021/10/15 13:30:44;;;;;;;8.20;7.50;;;;;;;13.21;65.57;100230.15;230491;1196;138704;-75
2021/10/15 13:35:49;;;;;;;7.00;6.30;;;;;;;13.15;66.11;100229.26;230408;1196;139182;-75
2021/10/15 13:46:36;;;;;;;6.90;6.30;;;;;;;13.14;65.98;100216.54;229735;1196;138469;-76
2021/10/15 13:51:38;;;;;;;9.80;8.90;;;;;;;13.10;66.00;100227.08;229780;1196;138315;-77
2021/10/15 13:56:40;;;;;;;8.30;7.50;;;;;;;13.05;65.68;100225.83;230135;1196;138220;-76
2021/10/15 14:01:53;;;;;;;7.80;6.70;;;;;;;13.02;65.89;100216.95;230221;1195;138218;-75
2021/10/15 14:06:55;;;;;;;6.50;5.90;;;;;;;13.04;65.94;100218.70;230185;1195;138977;-77
2021/10/15 14:11:57;;;;;;;8.60;7.50;;;;;;;13.05;65.83;100218.56;229995;1196;138309;-74
2021/10/15 14:16:59;;;;;;;8.00;7.30;;;;;;;13.00;65.76;100218.75;230064;1196;138868;-76
2021/10/15 14:22:00;;;;;;;7.10;6.40;;;;;;;12.94;66.27;100214.06;230205;1195;139317;-74
2021/10/15 14:27:07;;;;;;;7.10;6.50;;;;;;;12.91;66.31;100213.08;230453;1196;138934;-77
2021/10/15 14:32:09;;;;;;;6.10;5.50;;;;;;;12.92;66.14;100215.11;230302;1196;139827;-74
2021/10/15 14:37:11;;;;;;;6.00;5.40;;;;;;;12.94;65.94;100218.72;230501;1187;138759;-75
2021/10/15 14:42:13;;;;;;;8.10;6.90;;;;;;;12.92;65.96;100213.81;231369;1195;138553;-78
2021/10/15 14:47:14;;;;;;;10.30;8.20;;;;;;;12.96;65.78;100211.94;231078;1195;138118;-76
2021/10/15 14:52:20;;;;;;;7.80;6.80;;;;;;;12.91;65.86;100220.77;230800;1196;139007;-78
2021/10/15 14:57:21;;;;;;;7.90;7.20;;;;;;;12.87;66.13;100215.09;230414;1195;138450;-75
2021/10/15 15:02:23;;;;;;;7.40;6.80;;;;;;;12.82;66.13;100213.73;230228;1195;139157;-76
2021/10/15 15:07:25;;;;;;;7.30;6.70;;;;;;;12.82;65.95;100216.54;230439;1196;142174;-77
2021/10/15 15:12:26;;;;;;;7.40;6.80;;;;;;;12.81;65.93;100211.54;230382;1196;138922;-76
2021/10/15 15:17:30;;;;;;;6.50;5.80;;;;;;;12.74;66.02;100205.98;230029;1196;138681;-78
2021/10/15 15:22:32;;;;;;;6.50;5.90;;;;;;;12.67;66.36;100210.49;230384;1196;138994;-78
2021/10/15 15:27:33;;;;;;;6.20;5.60;;;;;;;12.61;66.41;100203.69;230103;1190;137973;-74
2021/10/15 15:32:40;;;;;;;5.80;5.30;;;;;;;12.56;66.89;100203.86;230158;1195;138313;-74
2021/10/15 15:37:43;;;;;;;7.60;6.80;;;;;;;12.55;66.62;100208.27;230423;1196;140377;-75
2021/10/15 15:42:45;;;;;;;8.80;7.50;;;;;;;12.56;66.58;100215.38;229971;1196;138579;-75
2021/10/15 15:47:48;;;;;;;7.30;6.60;;;;;;;12.54;66.34;100224.79;230384;1196;138508;-75
2021/10/15 15:52:52;;;;;;;8.10;7.40;;;;;;;12.50;66.67;100218.53;230451;1196;138330;-79
2021/10/15 15:57:54;;;;;;;7.70;7.00;;;;;;;12.45;66.86;100221.86;230275;1196;138594;-78
2021/10/15 16:02:56;;;;;;;7.30;6.40;;;;;;;12.42;66.77;100226.80;230250;1196;138673;-79
2021/10/15 16:07:57;;;;;;;7.20;6.60;;;;;;;12.44;66.63;100231.41;229944;1196;138780;-80
2021/10/15 16:12:59;;;;;;;14.20;12.80;;;;;;;12.46;65.92;100227.39;230534;1196;138303;-78
2021/10/15 16:18:01;;;;;;;16.60;14.10;;;;;;;12.45;65.88;100228.02;230652;1196;138580;-76
2021/10/15 16:23:03;;;;;;;10.80;9.80;;;;;;;12.41;65.94;100229.23;230693;1196;138407;-78
2021/10/15 16:28:08;;;;;;;7.80;7.20;;;;;;;12.35;66.13;100228.38;230566;1196;138395;-77
2021/10/15 16:33:10;;;;;;;6.80;6.30;;;;;;;12.33;66.06;100224.70;230288;1196;138792;-77
2021/10/15 16:38:12;;;;;;;7.20;6.60;;;;;;;12.32;66.33;100220.17;230203;1196;138435;-79
2021/10/15 16:43:13;;;;;;;8.30;7.30;;;;;;;12.27;66.41;100212.02;230186;1193;138283;-78
2021/10/15 16:48:15;;;;;;;7.90;7.20;;;;;;;12.20;66.64;100208.62;230296;1195;138465;-78
2021/10/15 16:53:17;;;;;;;7.70;7.10;;;;;;;12.09;67.23;100206.27;230249;1196;138444;-80
2021/10/15 16:58:18;;;;;;;7.90;7.20;;;;;;;11.99;67.59;100210.36;230194;1196;138896;-77
2021/10/15 17:03:20;;;;;;;12.30;10.70;;;;;;;11.97;67.55;100209.67;230080;1180;139798;-79
2021/10/15 17:08:22;;;;;;;8.00;7.20;;;;;;;11.94;67.58;100216.29;229717;1197;139075;-79
2021/10/15 17:13:24;;;;;;;7.90;7.10;;;;;;;11.89;67.82;100223.65;230105;1196;138612;-79
2021/10/15 17:18:26;;;;;;;8.00;7.20;;;;;;;11.82;68.08;100216.05;230188;1196;138384;-77
2021/10/15 17:23:28;;;;;;;7.20;6.50;;;;;;;11.75;68.46;100203.15;229898;1196;138249;-78
2021/10/15 17:28:30;;;;;;;8.10;7.30;;;;;;;11.71;68.74;100200.64;229980;1196;138653;-77
2021/10/15 17:33:32;;;;;;;7.80;7.10;;;;;;;11.68;68.94;100202.96;230138;1196;138320;-78
2021/10/15 17:38:34;;;;;;;8.80;8.00;;;;;;;11.64;69.12;100203.91;230435;1196;138227;-78
2021/10/15 17:43:38;;;;;;;8.70;7.90;;;;;;;11.58;69.52;100201.66;230382;1196;139055;-78
2021/10/15 17:48:40;;;;;;;7.50;6.80;;;;;;;11.59;69.43;100198.63;230080;1196;138872;-76
2021/10/15 17:53:41;;;;;;;7.60;6.90;;;;;;;11.56;69.73;100194.91;229985;1196;138772;-76
2021/10/15 17:58:43;;;;;;;10.00;9.10;;;;;;;11.54;69.89;100189.95;230400;1196;138892;-76
2021/10/15 18:03:45;;;;;;;8.60;7.70;;;;;;;11.51;70.10;100186.73;230406;1196;138884;-76
2021/10/15 18:08:46;;;;;;;8.80;7.90;;;;;;;11.47;70.23;100180.95;230495;1195;138582;-77
2021/10/15 18:13:48;;;;;;;8.60;7.80;;;;;;;11.46;70.38;100177.52;231143;1196;138558;-79
2021/10/15 18:18:50;;;;;;;11.70;10.60;;;;;;;11.50;70.55;100167.21;230860;1196;139479;-79
2021/10/15 18:23:52;;;;;;;15.10;13.60;;;;;;;11.46;70.57;100166.91;231785;1196;138601;-78
2021/10/15 18:28:54;;;;;;;12.20;10.40;;;;;;;11.43;70.86;100168.36;230225;1196;139352;-76
2021/10/15 18:33:55;;;;;;;8.40;7.50;;;;;;;11.39;71.14;100174.17;230403;1196;138738;-80
2021/10/15 18:38:57;;;;;;;9.60;8.70;;;;;;;11.42;71.23;100177.29;230565;1196;139315;-77
2021/10/15 18:43:59;;;;;;;10.30;7.60;;;;;;;11.39;71.46;100174.09;230558;1196;138427;-77
2021/10/15 18:49:01;;;;;;;9.70;7.70;;;;;;;11.31;71.92;100173.84;230118;1196;139403;-79
2021/10/15 18:54:05;;;;;;;8.60;7.70;;;;;;;11.30;72.07;100179.91;230085;1196;140050;-78
2021/10/15 18:59:07;;;;;;;10.40;9.40;;;;;;;11.31;72.12;100174.60;230088;1196;139228;-79
2021/10/15 19:04:09;;;;;;;12.30;8.50;;;;;;;11.26;72.34;100169.13;230266;1196;139168;-76
2021/10/15 19:09:10;;;;;;;9.70;8.70;;;;;;;11.24;72.44;100168.23;232596;1195;138713;-76
2021/10/15 19:14:12;;;;;;;10.60;8.80;;;;;;;11.29;72.50;100168.23;232763;1196;139019;-78
2021/10/15 19:19:14;;;;;;;9.10;8.30;;;;;;;11.35;72.41;100164.40;230556;1187;138453;-80
2021/10/15 19:24:17;;;;;;;8.90;8.00;;;;;;;11.31;72.72;100165.70;231113;1196;139022;-76
2021/10/15 19:29:18;;;;;;;9.80;8.80;;;;;;;11.30;73.01;100179.98;231288;1196;138272;-76
2021/10/15 19:34:20;;;;;;;11.30;10.20;;;;;;;11.41;72.70;100179.80;230452;1196;138965;-79
2021/10/15 19:39:22;;;;;;;9.30;8.40;;;;;;;11.50;72.50;100174.79;231886;1187;138456;-77
2021/10/15 19:44:24;;;;;;;9.10;7.90;;;;;;;11.57;72.23;100170.95;230767;1195;138449;-78
2021/10/15 19:49:25;;;;;;;13.40;12.10;;;;;;;11.59;72.23;100172.64;230549;1196;139410;-75
2021/10/15 19:54:27;;;;;;;10.00;9.00;;;;;;;11.65;72.09;100169.73;230595;1196;139397;-76
2021/10/15 19:59:29;;;;;;;10.10;9.20;;;;;;;11.66;72.12;100167.12;230380;1196;138753;-78
2021/10/15 20:04:31;;;;;;;10.20;9.20;;;;;;;11.65;72.33;100174.29;230215;1196;138899;-80
2021/10/15 20:09:32;;;;;;;10.70;9.60;;;;;;;11.56;73.30;100177.77;230435;1196;139557;-79
2021/10/15 20:14:34;;;;;;;10.40;9.40;;;;;;;11.49;74.52;100183.02;230167;1196;139351;-77
2021/10/15 20:19:36;;;;;;;10.60;9.00;;;;;;;11.44;75.14;100195.61;230425;1200;138581;-76
2021/10/15 20:24:38;;;;;;;9.80;8.70;;;;;;;11.39;75.99;100202.09;229961;1188;139064;-73
2021/10/15 20:29:39;;;;;;;11.30;10.00;;;;;;;11.25;77.59;100214.52;229761;1196;139466;-75
2021/10/15 20:34:41;;;;;;;14.10;12.70;;;;;;;11.16;78.63;100228.16;230157;1196;139383;-74
2021/10/15 20:39:43;;;;;;;9.10;8.10;;;;;;;11.03;78.88;100240.42;230553;1196;141133;-75
2021/10/15 20:44:45;;;;;;;5.60;4.90;;;;;;;10.91;78.92;100245.27;230367;1196;139264;-74
2021/10/15 20:49:47;;;;;;;4.80;4.30;;;;;;;10.85;79.07;100250.46;230505;1196;138965;-74
2021/10/15 20:54:49;;;;;;;5.30;4.80;;;;;;;10.76;79.53;100256.86;230442;1196;138717;-75
2021/10/15 20:59:51;;;;;;;3.70;3.30;;;;;;;10.66;79.21;100276.73;230517;1193;138697;-76
2021/10/15 21:04:52;;;;;;;3.70;3.30;;;;;;;10.51;79.68;100276.94;230392;1197;139239;-75
2021/10/15 21:09:54;;;;;;;3.90;3.30;;;;;;;10.49;79.83;100286.03;230369;1196;139191;-75
2021/10/15 21:14:56;;;;;;;3.60;3.30;;;;;;;10.40;80.37;100291.14;230554;1196;138223;-75
2021/10/15 21:19:58;;;;;;;5.90;5.30;;;;;;;10.36;80.21;100300.17;230122;1195;139089;-77
2021/10/15 21:24:59;;;;;;;4.50;4.00;;;;;;;10.39;79.14;100310.61;231340;1195;138880;-75
2021/10/15 21:30:02;;;;;;;4.40;3.20;;;;;;;10.38;78.99;100320.61;231797;1196;137944;-74
2021/10/15 21:35:06;;;;;;;4.40;3.60;;;;;;;10.12;81.63;100330.36;232752;1195;138610;-77
2021/10/15 21:40:09;;;;;;;4.10;3.60;;;;;;;10.08;82.54;100346.27;232221;1195;139241;-76
2021/10/15 21:45:11;;;;;;;4.90;4.40;;;;;;;9.99;83.57;100346.55;232337;1195;138445;-76
2021/10/15 21:50:19;;;;;;;5.20;3.10;;;;;;;9.89;84.04;100344.10;232617;1195;138508;-75
2021/10/15 21:55:22;;;;;;;2.80;2.40;;;;;;;9.76;84.17;100344.48;231400;1194;138746;-75
2021/10/15 22:00:26;;;;;;;4.10;2.70;;;;;;;9.65;84.20;100343.09;232793;1195;138455;-76
2021/10/15 22:05:30;;;;;;;3.30;2.50;;;;;;;9.45;83.83;100350.45;232508;1195;137960;-74
2021/10/15 22:10:32;;;;;;;2.50;1.70;;;;;;;9.39;83.44;100350.98;231855;1195;138023;-74
2021/10/15 22:15:33;;;;;;;4.40;2.00;;;;;;;9.30;82.54;100358.08;231521;1196;138661;-74
2021/10/15 22:20:35;;;;;;;2.70;2.10;;;;;;;9.17;81.85;100362.96;231025;1196;138255;-76
2021/10/15 22:25:37;;;;;;;3.60;2.30;;;;;;;9.13;81.74;100364.42;232081;1179;208127;-78
2021/10/15 22:30:38;;;;;;;2.10;1.90;;;;;;;8.95;82.63;100367.86;231949;1195;138638;-76
2021/10/15 22:35:41;;;;;;;3.70;2.10;;;;;;;8.92;82.63;100375.63;232400;1195;139068;-76
2021/10/15 22:40:43;;;;;;;3.30;2.00;;;;;;;8.81;82.10;100378.60;231880;1195;138752;-75
2021/10/15 22:45:44;;;;;;;3.80;2.40;;;;;;;8.61;82.35;100373.77;231459;1195;138139;-75
2021/10/15 22:50:46;;;;;;;3.60;2.50;;;;;;;8.62;82.37;100380.88;231696;1196;138478;-74
2021/10/15 22:55:48;;;;;;;2.90;2.10;;;;;;;8.68;81.96;100389.13;232589;1196;138952;-76
2021/10/15 23:00:51;;;;;;;3.80;2.40;;;;;;;8.64;82.18;100387.19;230851;1196;138467;-75
2021/10/15 23:05:53;;;;;;;4.10;2.00;;;;;;;8.62;82.81;100389.72;230296;1196;138610;-75
2021/10/15 23:10:55;;;;;;;3.50;2.50;;;;;;;8.67;82.54;100399.75;232546;1195;138470;-76